createdAt,value
2023-09-15T00:00:04.765Z,11.65
2023-09-15T00:01:06.415Z,11.85
2023-09-15T00:02:08.061Z,11.05
2023-09-15T00:03:12.116Z,11.30
2023-09-15T00:04:14.191Z,11.55
2023-09-15T00:05:16.061Z,11.73
2023-09-15T00:06:17.609Z,11.77
2023-09-15T00:07:19.239Z,11.30
2023-09-15T00:08:20.903Z,12.20
2023-09-15T00:09:22.482Z,13.00
2023-09-15T00:10:24.150Z,11.88
2023-09-15T00:11:25.752Z,12.45
2023-09-15T00:12:27.289Z,11.00
2023-09-15T00:13:28.946Z,11.40
2023-09-15T00:14:30.617Z,12.15
2023-09-15T00:15:32.261Z,12.15
2023-09-15T00:16:33.892Z,13.20
2023-09-15T00:17:36.298Z,11.52
2023-09-15T00:18:37.966Z,12.23
2023-09-15T00:19:39.571Z,12.40
2023-09-15T00:20:41.170Z,12.13
2023-09-15T00:21:43.672Z,11.43
2023-09-15T00:22:45.973Z,11.45
2023-09-15T00:23:47.568Z,12.68
2023-09-15T00:24:49.136Z,12.73
2023-09-15T00:25:50.730Z,11.63
2023-09-15T00:26:52.286Z,13.25
2023-09-15T00:28:03.808Z,11.98
2023-09-15T00:29:05.491Z,12.10
2023-09-15T00:30:07.315Z,11.13
2023-09-15T00:31:08.965Z,10.77
2023-09-15T00:32:10.598Z,11.63
2023-09-15T00:33:12.216Z,11.18
2023-09-15T00:34:13.791Z,11.55
2023-09-15T00:35:16.119Z,12.13
2023-09-15T00:36:17.678Z,10.60
2023-09-15T00:37:19.280Z,11.25
2023-09-15T00:38:20.877Z,10.95
2023-09-15T00:39:22.416Z,11.40
2023-09-15T00:40:24.683Z,10.52
2023-09-15T00:41:26.275Z,10.45
2023-09-15T00:42:27.865Z,11.60
2023-09-15T00:43:29.421Z,10.85
2023-09-15T00:44:30.975Z,11.18
2023-09-15T00:45:32.977Z,11.18
2023-09-15T00:46:34.673Z,11.85
2023-09-15T00:47:36.564Z,11.07
2023-09-15T00:48:38.427Z,10.77
2023-09-15T00:49:40.061Z,11.10
2023-09-15T00:50:42.878Z,11.52
2023-09-15T00:51:44.577Z,11.15
2023-09-15T00:52:54.469Z,11.70
2023-09-15T00:53:57.070Z,10.50
2023-09-15T00:54:59.370Z,10.55
2023-09-15T00:56:01.089Z,10.82
2023-09-15T00:57:03.014Z,10.98
2023-09-15T00:58:04.687Z,11.68
2023-09-15T00:59:06.322Z,11.75
2023-09-15T01:00:08.257Z,11.57
2023-09-15T01:01:10.417Z,11.48
2023-09-15T01:02:12.405Z,11.70
2023-09-15T01:03:15.710Z,11.00
2023-09-15T01:04:18.548Z,11.27
2023-09-15T01:05:21.365Z,11.52
2023-09-15T01:06:23.358Z,11.60
2023-09-15T01:07:24.977Z,11.65
2023-09-15T01:08:26.542Z,11.55
2023-09-15T01:09:28.161Z,10.85
2023-09-15T01:10:30.138Z,11.33
2023-09-15T01:11:31.764Z,12.43
2023-09-15T01:12:33.353Z,11.75
2023-09-15T01:13:35.564Z,10.93
2023-09-15T01:16:18.275Z,11.07
2023-09-15T01:17:23.369Z,11.32
2023-09-15T01:18:32.681Z,11.95
2023-09-15T01:19:52.022Z,10.95
2023-09-15T01:20:59.443Z,11.20
2023-09-15T01:22:00.992Z,11.73
2023-09-15T01:23:21.187Z,11.02
2023-09-15T01:24:41.275Z,10.43
2023-09-15T01:25:42.832Z,11.80
2023-09-15T01:26:50.155Z,11.20
2023-09-15T01:28:10.255Z,12.00
2023-09-15T01:29:20.899Z,11.90
2023-09-15T01:30:24.849Z,11.85
2023-09-15T01:31:26.562Z,10.73
2023-09-15T01:32:29.670Z,11.32
2023-09-15T01:33:31.456Z,11.63
2023-09-15T01:34:33.011Z,11.45
2023-09-15T01:35:34.526Z,12.15
2023-09-15T01:36:36.117Z,12.57
2023-09-15T01:37:37.627Z,11.13
2023-09-15T01:38:39.201Z,11.73
2023-09-15T01:39:40.828Z,11.65
2023-09-15T01:40:42.313Z,11.52
2023-09-15T01:41:43.823Z,12.27
2023-09-15T01:42:49.514Z,12.23
2023-09-15T01:43:51.104Z,11.37
2023-09-15T01:44:52.640Z,11.45
2023-09-15T01:45:54.344Z,11.45
2023-09-15T01:46:56.009Z,11.13
2023-09-15T01:47:58.731Z,11.20
2023-09-15T01:49:00.818Z,11.23
2023-09-15T01:50:02.816Z,11.00
2023-09-15T01:51:04.900Z,11.68
2023-09-15T01:52:06.897Z,11.35
2023-09-15T01:53:11.254Z,10.85
2023-09-15T01:54:13.464Z,11.70
2023-09-15T01:55:15.219Z,11.15
2023-09-15T01:56:17.439Z,11.77
2023-09-15T01:57:18.954Z,11.77
2023-09-15T01:58:20.547Z,12.05
2023-09-15T01:59:22.088Z,11.02
2023-09-15T02:03:22.351Z,11.73
2023-09-15T02:04:24.027Z,11.07
2023-09-15T02:05:25.905Z,11.63
2023-09-15T02:06:27.460Z,10.77
2023-09-15T02:07:28.984Z,11.88
2023-09-15T02:08:30.503Z,12.88
2023-09-15T02:09:32.061Z,12.48
2023-09-15T02:10:33.653Z,12.32
2023-09-15T02:11:35.187Z,12.25
2023-09-15T02:12:36.763Z,12.63
2023-09-15T02:13:39.032Z,12.65
2023-09-15T02:14:40.619Z,12.10
2023-09-15T02:15:42.188Z,11.63
2023-09-15T02:16:43.902Z,11.20
2023-09-15T02:17:45.706Z,11.52
2023-09-15T02:18:47.419Z,11.77
2023-09-15T02:19:49.192Z,11.85
2023-09-15T02:20:54.055Z,13.00
2023-09-15T02:21:55.589Z,12.57
2023-09-15T02:22:57.110Z,11.95
2023-09-15T02:23:58.725Z,12.93
2023-09-15T02:25:00.312Z,11.68
2023-09-15T02:26:05.239Z,12.43
2023-09-15T02:27:06.722Z,11.48
2023-09-15T02:28:08.288Z,12.25
2023-09-15T02:29:09.836Z,12.40
2023-09-15T02:30:11.508Z,12.73
2023-09-15T02:31:13.147Z,12.02
2023-09-15T02:32:14.724Z,12.25
2023-09-15T02:33:16.231Z,12.73
2023-09-15T02:34:17.835Z,11.50
2023-09-15T02:35:20.370Z,12.25
2023-09-15T02:36:21.877Z,11.27
2023-09-15T02:37:23.444Z,11.45
2023-09-15T02:38:25.101Z,12.10
2023-09-15T02:39:26.659Z,12.68
2023-09-15T02:40:28.319Z,12.60
2023-09-15T02:41:29.827Z,11.95
2023-09-15T02:42:31.623Z,12.18
2023-09-15T02:43:33.290Z,11.32
2023-09-15T02:44:34.796Z,12.32
2023-09-15T02:45:36.545Z,11.63
2023-09-15T02:46:38.209Z,10.90
2023-09-15T02:47:39.777Z,11.13
2023-09-15T02:48:44.232Z,12.60
2023-09-15T02:49:45.954Z,11.63
2023-09-15T02:50:47.520Z,12.52
2023-09-15T02:51:49.050Z,11.60
2023-09-15T02:52:50.598Z,11.98
2023-09-15T02:53:52.122Z,12.25
2023-09-15T02:54:53.691Z,12.95
2023-09-15T02:55:58.845Z,11.85
2023-09-15T02:57:00.332Z,11.97
2023-09-15T02:58:01.978Z,12.75
2023-09-15T02:59:03.528Z,11.95
2023-09-15T03:00:05.381Z,11.60
2023-09-15T03:01:14.207Z,12.25
2023-09-15T03:02:16.061Z,11.88
2023-09-15T03:03:17.661Z,12.23
2023-09-15T03:04:19.324Z,11.88
2023-09-15T03:05:21.039Z,11.63
2023-09-15T03:06:22.584Z,13.50
2023-09-15T03:07:24.158Z,12.40
2023-09-15T03:08:25.716Z,11.68
2023-09-15T03:09:27.226Z,13.23
2023-09-15T03:10:28.746Z,11.68
2023-09-15T03:11:30.285Z,11.95
2023-09-15T03:12:31.846Z,12.02
2023-09-15T03:13:33.393Z,11.75
2023-09-15T03:14:34.962Z,12.05
2023-09-15T03:15:36.716Z,12.27
2023-09-15T03:16:40.571Z,12.15
2023-09-15T03:17:42.266Z,13.73
2023-09-15T03:18:44.106Z,12.55
2023-09-15T03:19:45.740Z,13.13
2023-09-15T03:20:47.309Z,13.02
2023-09-15T03:21:48.862Z,12.55
2023-09-15T03:22:51.817Z,12.25
2023-09-15T03:23:53.357Z,11.63
2023-09-15T03:24:57.736Z,12.35
2023-09-15T03:26:02.415Z,12.75
2023-09-15T03:27:04.040Z,12.45
2023-09-15T03:28:05.739Z,12.33
2023-09-15T03:29:07.552Z,12.13
2023-09-15T03:30:09.276Z,12.55
2023-09-15T03:31:10.857Z,11.63
2023-09-15T03:32:12.473Z,11.38
2023-09-15T03:33:13.986Z,11.48
2023-09-15T03:34:15.569Z,11.90
2023-09-15T03:35:17.278Z,12.05
2023-09-15T03:36:18.884Z,11.70
2023-09-15T03:37:20.495Z,10.90
2023-09-15T03:38:21.992Z,11.43
2023-09-15T03:39:23.468Z,10.63
2023-09-15T03:40:25.034Z,12.10
2023-09-15T03:41:26.613Z,16.73
2023-09-15T03:42:28.126Z,15.70
2023-09-15T03:43:29.769Z,13.98
2023-09-15T03:44:31.304Z,12.90
2023-09-15T03:45:35.266Z,11.70
2023-09-15T03:46:36.860Z,12.20
2023-09-15T03:47:38.536Z,11.93
2023-09-15T03:48:40.021Z,12.57
2023-09-15T03:49:41.516Z,13.80
2023-09-15T03:50:43.298Z,15.07
2023-09-15T03:51:44.849Z,13.20
2023-09-15T03:52:47.288Z,12.52
2023-09-15T03:53:48.856Z,11.23
2023-09-15T03:54:50.387Z,10.75
2023-09-15T03:55:51.980Z,11.43
2023-09-15T03:56:53.580Z,11.25
2023-09-15T03:57:55.163Z,10.77
2023-09-15T03:58:56.655Z,12.87
2023-09-15T03:59:58.197Z,11.85
2023-09-15T04:00:59.754Z,11.85
2023-09-15T04:02:01.562Z,11.80
2023-09-15T04:03:03.141Z,12.00
2023-09-15T04:04:04.953Z,10.85
2023-09-15T04:05:06.874Z,11.43
2023-09-15T04:06:08.376Z,11.35
2023-09-15T04:07:09.864Z,11.35
2023-09-15T04:08:11.375Z,10.95
2023-09-15T04:09:12.965Z,11.27
2023-09-15T04:10:14.630Z,11.35
2023-09-15T04:11:16.141Z,10.43
2023-09-15T04:12:17.740Z,11.20
2023-09-15T04:13:19.369Z,10.75
2023-09-15T04:14:21.054Z,11.38
2023-09-15T04:15:22.627Z,10.88
2023-09-15T04:16:24.204Z,11.05
2023-09-15T04:17:26.063Z,12.25
2023-09-15T04:18:27.838Z,11.38
2023-09-15T04:19:29.430Z,11.13
2023-09-15T04:20:43.641Z,11.00
2023-09-15T04:21:48.006Z,10.75
2023-09-15T04:22:49.854Z,11.07
2023-09-15T04:23:51.405Z,11.35
2023-09-15T04:24:53.034Z,12.38
2023-09-15T04:25:54.620Z,12.98
2023-09-15T04:26:56.159Z,13.27
2023-09-15T04:27:57.744Z,12.32
2023-09-15T04:28:59.243Z,13.82
2023-09-15T04:30:01.211Z,14.73
2023-09-15T04:31:02.842Z,14.73
2023-09-15T04:32:04.733Z,15.43
2023-09-15T04:33:06.362Z,14.40
2023-09-15T04:34:07.925Z,13.10
2023-09-15T04:35:09.580Z,14.00
2023-09-15T04:36:11.206Z,13.80
2023-09-15T04:37:12.807Z,12.63
2023-09-15T04:38:14.365Z,13.02
2023-09-15T04:39:15.951Z,12.80
2023-09-15T04:40:17.597Z,12.70
2023-09-15T04:41:19.291Z,13.98
2023-09-15T04:42:21.384Z,13.27
2023-09-15T04:43:23.150Z,12.68
2023-09-15T04:44:24.691Z,13.05
2023-09-15T04:45:26.532Z,13.63
2023-09-15T04:46:28.186Z,13.63
2023-09-15T04:47:37.401Z,13.80
2023-09-15T04:48:38.945Z,14.30
2023-09-15T04:49:40.542Z,13.25
2023-09-15T04:50:42.106Z,14.03
2023-09-15T04:51:43.591Z,13.82
2023-09-15T04:52:45.170Z,13.10
2023-09-15T04:53:46.718Z,13.50
2023-09-15T04:54:48.284Z,14.30
2023-09-15T04:55:49.964Z,13.77
2023-09-15T04:56:51.480Z,12.95
2023-09-15T04:57:53.057Z,14.38
2023-09-15T04:58:54.588Z,13.30
2023-09-15T04:59:56.136Z,13.90
2023-09-15T05:01:00.816Z,13.97
2023-09-15T05:02:02.500Z,11.90
2023-09-15T05:03:04.768Z,12.52
2023-09-15T05:04:06.466Z,12.45
2023-09-15T05:05:08.174Z,11.38
2023-09-15T05:06:09.718Z,12.98
2023-09-15T05:07:11.311Z,12.13
2023-09-15T05:08:12.863Z,12.32
2023-09-15T05:09:14.555Z,12.20
2023-09-15T05:10:16.145Z,12.02
2023-09-15T05:11:17.758Z,11.80
2023-09-15T05:12:19.376Z,12.65
2023-09-15T05:13:20.940Z,14.23
2023-09-15T05:14:22.683Z,12.48
2023-09-15T05:15:24.139Z,12.85
2023-09-15T05:16:25.868Z,12.95
2023-09-15T05:17:27.937Z,13.60
2023-09-15T05:18:29.850Z,13.02
2023-09-15T05:19:31.396Z,12.63
2023-09-15T05:20:32.950Z,12.75
2023-09-15T05:21:34.582Z,12.00
2023-09-15T05:22:36.128Z,12.75
2023-09-15T05:23:37.705Z,12.43
2023-09-15T05:24:39.249Z,13.10
2023-09-15T05:25:41.323Z,12.30
2023-09-15T05:26:42.900Z,11.80
2023-09-15T05:27:44.494Z,13.15
2023-09-15T05:28:46.300Z,12.18
2023-09-15T05:29:48.078Z,12.30
2023-09-15T05:30:49.660Z,11.93
2023-09-15T05:31:51.294Z,13.43
2023-09-15T05:32:53.004Z,13.10
2023-09-15T05:33:55.752Z,12.93
2023-09-15T05:34:57.329Z,12.90
2023-09-15T05:35:59.359Z,13.35
2023-09-15T05:37:00.942Z,12.70
2023-09-15T05:38:02.588Z,12.98
2023-09-15T05:39:04.269Z,12.20
2023-09-15T05:40:06.039Z,13.02
2023-09-15T05:41:07.619Z,12.45
2023-09-15T05:42:09.363Z,13.50
2023-09-15T05:43:12.717Z,13.23
2023-09-15T05:44:14.383Z,12.90
2023-09-15T05:45:16.006Z,12.98
2023-09-15T05:46:17.695Z,12.88
2023-09-15T05:47:19.287Z,12.45
2023-09-15T05:48:20.805Z,11.90
2023-09-15T05:49:22.414Z,12.18
2023-09-15T05:50:24.037Z,12.05
2023-09-15T05:51:25.665Z,12.43
2023-09-15T05:52:28.479Z,12.23
2023-09-15T05:53:30.101Z,11.45
2023-09-15T05:54:31.644Z,12.50
2023-09-15T05:55:33.284Z,12.02
2023-09-15T05:56:34.859Z,12.25
2023-09-15T05:57:36.358Z,11.88
2023-09-15T05:58:37.949Z,11.57
2023-09-15T05:59:39.472Z,12.40
2023-09-15T06:00:41.875Z,12.00
2023-09-15T06:01:43.417Z,11.85
2023-09-15T06:02:44.994Z,12.13
2023-09-15T06:03:46.561Z,11.57
2023-09-15T06:04:48.193Z,13.20
2023-09-15T06:05:49.843Z,11.82
2023-09-15T06:06:51.415Z,12.63
2023-09-15T06:07:53.287Z,12.38
2023-09-15T06:08:54.940Z,12.60
2023-09-15T06:09:56.512Z,12.52
2023-09-15T06:10:58.236Z,11.65
2023-09-15T06:11:59.780Z,12.02
2023-09-15T06:13:01.402Z,12.63
2023-09-15T06:14:02.957Z,11.77
2023-09-15T06:15:04.560Z,12.45
2023-09-15T06:16:06.349Z,11.38
2023-09-15T06:17:08.020Z,12.52
2023-09-15T06:18:09.651Z,10.95
2023-09-15T06:19:11.228Z,10.93
2023-09-15T06:20:12.725Z,10.95
2023-09-15T06:21:14.861Z,11.57
2023-09-15T06:22:16.561Z,11.20
2023-09-15T06:23:18.100Z,10.70
2023-09-15T06:24:19.635Z,11.48
2023-09-15T06:25:21.221Z,11.70
2023-09-15T06:26:22.730Z,10.60
2023-09-15T06:27:24.191Z,10.82
2023-09-15T06:28:25.803Z,11.25
2023-09-15T06:29:27.385Z,11.70
2023-09-15T06:30:28.901Z,10.25
2023-09-15T06:31:30.628Z,10.65
2023-09-15T06:32:32.252Z,11.00
2023-09-15T06:33:33.894Z,10.43
2023-09-15T06:34:38.455Z,10.15
2023-09-15T06:35:40.251Z,11.45
2023-09-15T06:36:41.959Z,10.80
2023-09-15T06:37:43.469Z,12.30
2023-09-15T06:38:45.049Z,11.13
2023-09-15T06:39:46.680Z,10.48
2023-09-15T06:40:48.266Z,11.15
2023-09-15T06:41:49.891Z,10.68
2023-09-15T06:42:51.516Z,10.38
2023-09-15T06:43:53.260Z,10.40
2023-09-15T06:44:54.780Z,10.50
2023-09-15T06:45:56.327Z,11.60
2023-09-15T06:46:58.137Z,11.50
2023-09-15T06:48:00.200Z,10.68
2023-09-15T06:49:01.771Z,11.35
2023-09-15T06:50:03.387Z,10.60
2023-09-15T06:51:04.923Z,10.80
2023-09-15T06:52:07.194Z,10.55
2023-09-15T06:53:08.716Z,10.32
2023-09-15T06:54:10.216Z,11.10
2023-09-15T06:55:11.788Z,9.73
2023-09-15T06:56:13.380Z,10.48
2023-09-15T06:57:14.960Z,10.55
2023-09-15T06:58:16.564Z,11.07
2023-09-15T06:59:18.460Z,10.45
2023-09-15T07:00:19.995Z,11.45
2023-09-15T07:01:21.607Z,10.25
2023-09-15T07:02:23.242Z,9.82
2023-09-15T07:03:24.768Z,10.80
2023-09-15T07:04:26.622Z,10.60
2023-09-15T07:05:28.344Z,9.35
2023-09-15T07:06:29.920Z,10.43
2023-09-15T07:07:31.557Z,11.07
2023-09-15T07:08:33.169Z,10.10
2023-09-15T07:09:34.774Z,9.70
2023-09-15T07:10:36.268Z,9.57
2023-09-15T07:11:37.840Z,10.10
2023-09-15T07:12:39.655Z,10.13
2023-09-15T07:13:41.180Z,9.65
2023-09-15T07:14:42.751Z,10.07
2023-09-15T07:15:45.269Z,9.52
2023-09-15T07:16:46.932Z,8.77
2023-09-15T07:17:48.639Z,9.80
2023-09-15T07:18:50.316Z,10.35
2023-09-15T07:19:51.821Z,10.60
2023-09-15T07:20:53.379Z,9.10
2023-09-15T07:21:54.944Z,9.50
2023-09-15T07:22:56.551Z,9.55
2023-09-15T07:23:58.182Z,9.68
2023-09-15T07:24:59.741Z,9.33
2023-09-15T07:26:01.468Z,9.85
2023-09-15T07:27:03.106Z,9.65
2023-09-15T07:28:05.050Z,8.60
2023-09-15T07:29:06.795Z,9.40
2023-09-15T07:30:08.753Z,9.48
2023-09-15T07:31:11.207Z,9.35
2023-09-15T07:32:12.810Z,9.07
2023-09-15T07:33:14.317Z,9.57
2023-09-15T07:34:15.879Z,8.77
2023-09-15T07:35:17.525Z,9.27
2023-09-15T07:36:19.083Z,9.77
2023-09-15T07:37:20.634Z,9.18
2023-09-15T07:38:22.277Z,9.50
2023-09-15T07:39:23.789Z,8.55
2023-09-15T07:40:25.830Z,8.75
2023-09-15T07:41:27.415Z,8.93
2023-09-15T07:42:28.984Z,8.75
2023-09-15T07:43:30.595Z,8.25
2023-09-15T07:44:32.128Z,8.82
2023-09-15T07:45:33.875Z,9.00
2023-09-15T07:46:35.460Z,10.75
2023-09-15T07:47:37.114Z,8.95
2023-09-15T07:48:38.698Z,8.75
2023-09-15T07:49:40.281Z,8.63
2023-09-15T07:50:41.890Z,8.18
2023-09-15T07:51:43.410Z,8.77
2023-09-15T07:52:48.346Z,8.77
2023-09-15T07:53:50.039Z,9.13
2023-09-15T07:54:52.073Z,9.07
2023-09-15T07:55:53.592Z,9.20
2023-09-15T07:56:55.102Z,8.88
2023-09-15T07:57:56.605Z,8.63
2023-09-15T07:58:58.197Z,8.40
2023-09-15T08:00:00.192Z,8.50
2023-09-15T08:01:01.811Z,8.30
2023-09-15T08:02:03.642Z,8.32
2023-09-15T08:03:05.268Z,7.70
2023-09-15T08:04:07.071Z,8.98
2023-09-15T08:05:09.110Z,7.38
2023-09-15T08:06:10.966Z,8.17
2023-09-15T08:07:12.458Z,7.97
2023-09-15T08:08:14.120Z,8.15
2023-09-15T08:09:15.682Z,7.90
2023-09-15T08:10:17.385Z,8.18
2023-09-15T08:11:18.968Z,8.20
2023-09-15T08:12:20.450Z,8.10
2023-09-15T08:13:21.995Z,8.52
2023-09-15T08:14:23.570Z,8.05
2023-09-15T08:15:25.094Z,7.88
2023-09-15T08:16:26.667Z,7.50
2023-09-15T08:17:33.603Z,7.93
2023-09-15T08:18:35.842Z,8.45
2023-09-15T08:19:37.394Z,7.97
2023-09-15T08:20:38.902Z,7.63
2023-09-15T08:21:40.425Z,7.32
2023-09-15T08:22:42.121Z,7.97
2023-09-15T08:23:43.722Z,8.27
2023-09-15T08:24:45.238Z,7.50
2023-09-15T08:25:47.019Z,7.22
2023-09-15T08:26:48.790Z,7.67
2023-09-15T08:27:50.377Z,7.80
2023-09-15T08:28:52.007Z,7.93
2023-09-15T08:29:53.532Z,8.13
2023-09-15T08:30:55.126Z,7.93
2023-09-15T08:31:56.781Z,7.38
2023-09-15T08:32:58.348Z,7.47
2023-09-15T08:33:59.979Z,8.30
2023-09-15T08:35:01.542Z,7.82
2023-09-15T08:36:03.111Z,8.23
2023-09-15T08:37:04.716Z,8.13
2023-09-15T08:38:06.268Z,7.32
2023-09-15T08:39:07.950Z,8.68
2023-09-15T08:40:09.754Z,7.32
2023-09-15T08:41:31.550Z,7.45
2023-09-15T08:42:33.366Z,7.35
2023-09-15T08:43:35.196Z,7.00
2023-09-15T08:44:37.467Z,8.05
2023-09-15T08:45:39.066Z,7.50
2023-09-15T08:46:41.237Z,8.10
2023-09-15T08:47:48.279Z,8.07
2023-09-15T08:48:51.914Z,7.80
2023-09-15T08:49:53.904Z,7.75
2023-09-15T08:50:56.768Z,7.22
2023-09-15T08:51:58.862Z,7.78
2023-09-15T08:53:04.218Z,7.45
2023-09-15T08:54:06.062Z,7.65
2023-09-15T08:55:08.065Z,7.70
2023-09-15T08:56:09.948Z,8.00
2023-09-15T08:57:11.530Z,7.95
2023-09-15T08:58:13.446Z,7.97
2023-09-15T08:59:18.581Z,7.00
2023-09-15T09:00:23.506Z,8.60
2023-09-15T09:01:25.622Z,8.35
2023-09-15T09:02:27.599Z,7.50
2023-09-15T09:03:29.261Z,7.55
2023-09-15T09:04:30.834Z,8.88
2023-09-15T09:05:32.642Z,8.02
2023-09-15T09:06:35.310Z,7.97
2023-09-15T09:07:37.591Z,7.85
2023-09-15T09:08:42.675Z,7.77
2023-09-15T09:09:45.534Z,8.18
2023-09-15T09:10:47.713Z,7.45
2023-09-15T09:11:51.604Z,7.60
2023-09-15T09:12:53.312Z,7.10
2023-09-15T09:13:55.142Z,7.25
2023-09-15T09:14:57.029Z,7.70
2023-09-15T09:15:58.599Z,8.57
2023-09-15T09:17:01.991Z,8.02
2023-09-15T09:18:14.269Z,7.95
2023-09-15T09:19:15.902Z,7.33
2023-09-15T09:20:24.330Z,7.63
2023-09-15T09:21:29.741Z,7.63
2023-09-15T09:22:33.340Z,7.53
2023-09-15T09:23:35.024Z,7.05
2023-09-15T09:24:37.738Z,6.55
2023-09-15T09:25:39.442Z,7.18
2023-09-15T09:26:41.083Z,7.80
2023-09-15T09:27:42.583Z,7.60
2023-09-15T09:28:44.886Z,7.80
2023-09-15T09:29:47.014Z,7.63
2023-09-15T09:30:48.560Z,7.03
2023-09-15T09:31:51.561Z,7.15
2023-09-15T09:32:56.066Z,7.63
2023-09-15T09:33:58.685Z,7.60
2023-09-15T09:35:00.302Z,7.40
2023-09-15T09:36:09.692Z,7.95
2023-09-15T09:37:11.247Z,7.22
2023-09-15T09:38:13.865Z,7.18
2023-09-15T09:39:15.541Z,6.63
2023-09-15T09:40:17.230Z,7.53
2023-09-15T09:41:19.823Z,6.95
2023-09-15T09:42:23.251Z,7.13
2023-09-15T09:43:25.052Z,6.15
2023-09-15T09:44:26.696Z,6.82
2023-09-15T09:45:28.875Z,7.05
2023-09-15T09:46:30.554Z,7.47
2023-09-15T09:47:32.230Z,6.88
2023-09-15T09:48:41.013Z,6.65
2023-09-15T09:49:42.708Z,6.93
2023-09-15T09:50:44.297Z,7.07
2023-09-15T09:51:45.892Z,6.75
2023-09-15T09:52:47.463Z,7.20
2023-09-15T09:53:53.534Z,7.93
2023-09-15T09:54:55.111Z,7.03
2023-09-15T09:55:59.875Z,6.85
2023-09-15T09:57:02.587Z,7.40
2023-09-15T09:58:04.805Z,6.35
2023-09-15T09:59:10.141Z,6.30
2023-09-15T10:00:11.875Z,6.13
2023-09-15T10:01:13.596Z,6.10
2023-09-15T10:02:15.180Z,6.63
2023-09-15T10:03:16.864Z,6.35
2023-09-15T10:04:18.535Z,6.50
2023-09-15T10:05:20.117Z,6.05
2023-09-15T10:06:21.771Z,6.43
2023-09-15T10:07:23.339Z,7.25
2023-09-15T10:08:24.976Z,6.50
2023-09-15T10:09:27.003Z,6.53
2023-09-15T10:10:29.146Z,6.60
2023-09-15T10:11:30.884Z,6.17
2023-09-15T10:12:32.753Z,6.10
2023-09-15T10:13:35.308Z,6.10
2023-09-15T10:14:37.283Z,6.40
2023-09-15T10:15:41.988Z,6.25
2023-09-15T10:16:43.829Z,5.88
2023-09-15T10:17:45.474Z,6.18
2023-09-15T10:18:48.226Z,6.07
2023-09-15T10:19:51.436Z,7.10
2023-09-15T10:20:56.512Z,6.72
2023-09-15T10:21:58.901Z,6.50
2023-09-15T10:23:00.806Z,6.55
2023-09-15T10:24:06.359Z,6.13
2023-09-15T10:25:08.166Z,6.75
2023-09-15T10:26:09.736Z,7.35
2023-09-15T10:27:11.672Z,6.80
2023-09-15T10:28:19.941Z,6.53
2023-09-15T10:29:31.798Z,6.20
2023-09-15T10:30:39.816Z,6.03
2023-09-15T10:31:47.627Z,6.00
2023-09-15T10:32:51.798Z,6.37
2023-09-15T10:33:53.425Z,6.22
2023-09-15T10:34:55.019Z,6.05
2023-09-15T10:36:03.539Z,6.28
2023-09-15T10:37:05.226Z,6.45
2023-09-15T10:38:06.897Z,6.53
2023-09-15T10:39:12.079Z,5.60
2023-09-15T10:40:14.038Z,5.78
2023-09-15T10:41:27.552Z,6.40
2023-09-15T10:42:29.155Z,6.03
2023-09-15T10:43:30.688Z,6.33
2023-09-15T10:44:32.427Z,6.97
2023-09-15T10:45:34.037Z,6.45
2023-09-15T10:46:36.910Z,6.97
2023-09-15T10:47:38.563Z,7.05
2023-09-15T10:48:47.201Z,6.28
2023-09-15T10:49:52.888Z,6.90
2023-09-15T10:51:05.346Z,6.38
2023-09-15T10:52:06.814Z,6.97
2023-09-15T10:53:11.555Z,6.35
2023-09-15T10:54:13.100Z,6.70
2023-09-15T10:55:17.412Z,6.70
2023-09-15T10:56:19.793Z,6.60
2023-09-15T10:57:21.338Z,7.40
2023-09-15T10:58:22.955Z,6.75
2023-09-15T10:59:25.670Z,7.03
2023-09-15T11:00:27.421Z,6.22
2023-09-15T11:01:29.496Z,7.32
2023-09-15T11:02:31.246Z,7.32
2023-09-15T11:03:33.336Z,7.68
2023-09-15T11:04:35.117Z,7.33
2023-09-15T11:05:36.711Z,6.72
2023-09-15T11:06:38.248Z,6.43
2023-09-15T11:07:41.403Z,7.22
2023-09-15T11:08:43.063Z,6.15
2023-09-15T11:09:44.861Z,6.90
2023-09-15T11:10:46.435Z,7.55
2023-09-15T11:11:49.013Z,7.65
2023-09-15T11:12:57.795Z,7.00
2023-09-15T11:14:01.095Z,7.60
2023-09-15T11:15:02.688Z,7.07
2023-09-15T11:16:04.596Z,6.95
2023-09-15T11:17:06.452Z,7.15
2023-09-15T11:18:08.127Z,6.13
2023-09-15T11:19:10.286Z,7.70
2023-09-15T11:20:11.761Z,7.05
2023-09-15T11:21:13.587Z,7.18
2023-09-15T11:22:15.097Z,7.53
2023-09-15T11:23:17.295Z,7.60
2023-09-15T11:24:18.878Z,7.20
2023-09-15T11:25:20.542Z,7.57
2023-09-15T11:26:28.241Z,7.55
2023-09-15T11:27:32.942Z,7.25
2023-09-15T11:28:35.155Z,7.07
2023-09-15T11:29:36.734Z,7.70
2023-09-15T11:30:38.565Z,6.68
2023-09-15T11:31:40.356Z,6.55
2023-09-15T11:32:42.766Z,6.50
2023-09-15T11:33:45.895Z,7.55
2023-09-15T11:34:47.547Z,7.32
2023-09-15T11:35:49.166Z,7.77
2023-09-15T11:36:51.594Z,8.63
2023-09-15T11:37:53.168Z,8.05
2023-09-15T11:38:56.668Z,8.27
2023-09-15T11:40:00.799Z,8.25
2023-09-15T11:41:02.356Z,7.65
2023-09-15T11:42:10.780Z,8.65
2023-09-15T11:43:12.320Z,8.25
2023-09-15T11:44:13.856Z,7.78
2023-09-15T11:45:15.412Z,7.35
2023-09-15T11:46:17.054Z,7.93
2023-09-15T11:47:18.772Z,7.55
2023-09-15T11:48:21.575Z,7.78
2023-09-15T11:49:23.626Z,7.57
2023-09-15T11:50:26.344Z,8.05
2023-09-15T11:51:28.098Z,8.10
2023-09-15T11:52:29.720Z,7.85
2023-09-15T11:53:31.322Z,29.17
2023-09-15T11:54:32.876Z,9.90
2023-09-15T11:55:34.487Z,18.52
2023-09-15T11:56:36.789Z,10.00
2023-09-15T11:57:38.474Z,10.50
2023-09-15T11:58:41.251Z,7.80
2023-09-15T11:59:42.802Z,9.88
2023-09-15T12:00:44.594Z,7.80
2023-09-15T12:01:46.694Z,7.40
2023-09-15T12:02:49.286Z,7.47
2023-09-15T12:03:51.097Z,7.22
2023-09-15T12:04:53.468Z,7.72
2023-09-15T12:05:55.053Z,6.85
2023-09-15T12:06:56.846Z,7.83
2023-09-15T12:07:58.476Z,6.97
2023-09-15T12:09:00.083Z,7.88
2023-09-15T12:10:01.647Z,7.53
2023-09-15T12:11:12.424Z,6.60
2023-09-15T12:12:17.025Z,6.43
2023-09-15T12:13:18.783Z,6.53
2023-09-15T12:14:20.443Z,7.18
2023-09-15T12:15:24.183Z,7.53
2023-09-15T12:16:26.989Z,6.97
2023-09-15T12:17:29.117Z,7.53
2023-09-15T12:18:30.658Z,7.25
2023-09-15T12:19:35.699Z,8.30
2023-09-15T12:20:38.280Z,7.13
2023-09-15T12:21:49.895Z,7.45
2023-09-15T12:22:51.458Z,6.45
2023-09-15T12:23:53.637Z,8.27
2023-09-15T12:24:55.326Z,6.97
2023-09-15T12:25:56.968Z,6.50
2023-09-15T12:27:00.548Z,6.05
2023-09-15T12:28:02.252Z,6.23
2023-09-15T12:29:03.834Z,5.80
2023-09-15T12:30:05.786Z,6.47
2023-09-15T12:31:07.332Z,6.82
2023-09-15T12:32:08.885Z,6.38
2023-09-15T12:33:10.489Z,6.10
2023-09-15T12:34:13.718Z,5.90
2023-09-15T12:35:15.633Z,5.43
2023-09-15T12:36:18.206Z,6.80
2023-09-15T12:37:19.832Z,6.75
2023-09-15T12:38:21.533Z,6.80
2023-09-15T12:39:23.156Z,6.80
2023-09-15T12:40:24.837Z,7.22
2023-09-15T12:41:26.446Z,6.82
2023-09-15T12:42:27.981Z,7.05
2023-09-15T12:43:29.583Z,7.00
2023-09-15T12:44:31.102Z,7.13
2023-09-15T12:45:32.671Z,7.03
2023-09-15T12:46:34.364Z,7.13
2023-09-15T12:47:36.024Z,7.05
2023-09-15T12:48:37.532Z,7.30
2023-09-15T12:49:39.276Z,15.48
2023-09-15T12:50:40.810Z,7.45
2023-09-15T12:51:42.446Z,7.10
2023-09-15T12:52:43.995Z,7.18
2023-09-15T12:53:45.478Z,10.30
2023-09-15T12:54:47.052Z,8.38
2023-09-15T12:55:50.135Z,8.50
2023-09-15T12:56:51.688Z,7.43
2023-09-15T12:57:53.219Z,7.57
2023-09-15T12:58:54.713Z,8.67
2023-09-15T12:59:56.240Z,7.55
2023-09-15T13:00:57.847Z,7.80
2023-09-15T13:01:59.526Z,8.27
2023-09-15T13:03:01.436Z,7.97
2023-09-15T13:04:03.202Z,8.15
2023-09-15T13:05:05.007Z,7.63
2023-09-15T13:06:07.025Z,8.10
2023-09-15T13:07:08.513Z,7.80
2023-09-15T13:08:10.023Z,8.20
2023-09-15T13:09:11.546Z,8.07
2023-09-15T13:10:13.577Z,8.55
2023-09-15T13:11:15.229Z,8.30
2023-09-15T13:12:16.747Z,8.23
2023-09-15T13:13:18.364Z,8.20
2023-09-15T13:14:20.129Z,7.15
2023-09-15T13:15:21.700Z,7.63
2023-09-15T13:16:23.372Z,8.00
2023-09-15T13:17:24.960Z,10.45
2023-09-15T13:18:26.612Z,9.77
2023-09-15T13:19:28.180Z,8.83
2023-09-15T13:20:29.729Z,7.95
2023-09-15T13:21:31.303Z,8.50
2023-09-15T13:22:32.858Z,8.15
2023-09-15T13:23:34.400Z,8.75
2023-09-15T13:24:35.920Z,8.07
2023-09-15T13:25:37.587Z,7.70
2023-09-15T13:26:39.199Z,7.75
2023-09-15T13:27:40.708Z,7.95
2023-09-15T13:28:42.433Z,8.45
2023-09-15T13:29:43.981Z,7.63
2023-09-15T13:30:45.548Z,7.68
2023-09-15T13:31:48.053Z,10.18
2023-09-15T13:32:49.546Z,8.55
2023-09-15T13:33:51.497Z,8.50
2023-09-15T13:34:53.758Z,7.68
2023-09-15T13:35:55.286Z,8.52
2023-09-15T13:36:56.825Z,8.25
2023-09-15T13:37:58.339Z,8.20
2023-09-15T13:38:59.976Z,8.00